sensor_id;sensor_type;location;lat;lon;timestamp;pressure;altitude;pressure_sealevel;temperature;humidity
59588;BME280;45412;54.472;18.464;2023-03-14T00:00:41;97414.25;;;8.52;100.00
59588;BME280;45412;54.472;18.464;2023-03-14T00:03:28;97417.65;;;8.54;100.00
59588;BME280;45412;54.472;18.464;2023-03-14T00:06:17;97422.36;;;8.54;100.00
59588;BME280;45412;54.472;18.464;2023-03-14T00:09:03;97421.80;;;8.54;100.00
59588;BME280;45412;54.472;18.464;2023-03-14T00:11:50;97424.86;;;8.54;100.00
59588;BME280;45412;54.472;18.464;2023-03-14T00:14:36;97430.98;;;8.53;100.00
59588;BME280;45412;54.472;18.464;2023-03-14T00:17:23;97428.86;;;8.53;100.00
59588;BME280;45412;54.472;18.464;2023-03-14T00:20:10;97433.79;;;8.55;100.00
59588;BME280;45412;54.472;18.464;2023-03-14T00:22:57;97434.33;;;8.55;100.00
59588;BME280;45412;54.472;18.464;2023-03-14T00:25:43;97428.02;;;8.54;100.00
59588;BME280;45412;54.472;18.464;2023-03-14T00:28:30;97422.93;;;8.52;100.00
59588;BME280;45412;54.472;18.464;2023-03-14T00:31:16;97415.45;;;8.53;100.00
59588;BME280;45412;54.472;18.464;2023-03-14T00:34:03;97423.61;;;8.54;100.00
59588;BME280;45412;54.472;18.464;2023-03-14T00:36:51;97420.00;;;8.56;100.00
59588;BME280;45412;54.472;18.464;2023-03-14T00:39:37;97416.71;;;8.57;100.00
59588;BME280;45412;54.472;18.464;2023-03-14T00:42:24;97415.36;;;8.58;100.00
59588;BME280;45412;54.472;18.464;2023-03-14T00:45:10;97411.17;;;8.59;100.00
59588;BME280;45412;54.472;18.464;2023-03-14T00:47:56;97408.97;;;8.59;100.00
59588;BME280;45412;54.472;18.464;2023-03-14T00:50:44;97408.98;;;8.60;100.00
59588;BME280;45412;54.472;18.464;2023-03-14T00:53:37;97412.80;;;8.61;100.00
59588;BME280;45412;54.472;18.464;2023-03-14T00:56:24;97413.77;;;8.61;100.00
59588;BME280;45412;54.472;18.464;2023-03-14T00:59:11;97411.39;;;8.64;100.00
59588;BME280;45412;54.472;18.464;2023-03-14T01:01:58;97418.14;;;8.67;100.00
59588;BME280;45412;54.472;18.464;2023-03-14T01:04:47;97413.50;;;8.68;100.00
59588;BME280;45412;54.472;18.464;2023-03-14T01:07:34;97413.45;;;8.69;100.00
59588;BME280;45412;54.472;18.464;2023-03-14T01:10:21;97397.32;;;8.70;100.00
59588;BME280;45412;54.472;18.464;2023-03-14T01:13:09;97394.42;;;8.73;100.00
59588;BME280;45412;54.472;18.464;2023-03-14T01:16:01;97402.80;;;8.75;100.00
59588;BME280;45412;54.472;18.464;2023-03-14T01:18:48;97402.66;;;8.75;100.00
59588;BME280;45412;54.472;18.464;2023-03-14T01:21:35;97399.85;;;8.74;100.00
59588;BME280;45412;54.472;18.464;2023-03-14T01:24:22;97408.98;;;8.76;100.00
59588;BME280;45412;54.472;18.464;2023-03-14T01:27:08;97404.05;;;8.76;100.00
59588;BME280;45412;54.472;18.464;2023-03-14T01:29:55;97390.81;;;8.73;100.00
59588;BME280;45412;54.472;18.464;2023-03-14T01:32:41;97396.29;;;8.71;100.00
59588;BME280;45412;54.472;18.464;2023-03-14T01:35:28;97399.47;;;8.67;100.00
59588;BME280;45412;54.472;18.464;2023-03-14T01:38:15;97396.63;;;8.68;100.00
59588;BME280;45412;54.472;18.464;2023-03-14T01:41:04;97386.97;;;8.64;100.00
59588;BME280;45412;54.472;18.464;2023-03-14T01:43:50;97393.55;;;8.64;100.00
59588;BME280;45412;54.472;18.464;2023-03-14T01:46:45;97393.52;;;8.63;100.00
59588;BME280;45412;54.472;18.464;2023-03-14T01:49:34;97392.11;;;8.62;100.00
59588;BME280;45412;54.472;18.464;2023-03-14T01:52:44;97385.51;;;8.63;100.00
59588;BME280;45412;54.472;18.464;2023-03-14T01:55:32;97372.43;;;8.61;100.00
59588;BME280;45412;54.472;18.464;2023-03-14T01:58:19;97370.61;;;8.62;100.00
59588;BME280;45412;54.472;18.464;2023-03-14T02:01:09;97362.52;;;8.61;100.00
59588;BME280;45412;54.472;18.464;2023-03-14T02:03:59;97362.38;;;8.63;100.00
59588;BME280;45412;54.472;18.464;2023-03-14T02:07:24;97351.31;;;8.64;100.00
59588;BME280;45412;54.472;18.464;2023-03-14T02:10:30;97338.13;;;8.63;100.00
59588;BME280;45412;54.472;18.464;2023-03-14T02:13:21;97343.39;;;8.63;100.00
59588;BME280;45412;54.472;18.464;2023-03-14T02:16:26;97342.79;;;8.64;100.00
59588;BME280;45412;54.472;18.464;2023-03-14T02:22:47;97344.15;;;8.65;100.00
59588;BME280;45412;54.472;18.464;2023-03-14T02:28:24;97362.11;;;8.63;100.00
59588;BME280;45412;54.472;18.464;2023-03-14T02:31:15;97347.60;;;8.62;100.00
59588;BME280;45412;54.472;18.464;2023-03-14T02:34:03;97328.79;;;8.61;100.00
59588;BME280;45412;54.472;18.464;2023-03-14T02:36:49;97331.98;;;8.60;100.00
59588;BME280;45412;54.472;18.464;2023-03-14T02:39:43;97331.84;;;8.59;100.00
59588;BME280;45412;54.472;18.464;2023-03-14T02:42:30;97333.97;;;8.59;100.00
59588;BME280;45412;54.472;18.464;2023-03-14T02:48:26;97342.56;;;8.57;100.00
59588;BME280;45412;54.472;18.464;2023-03-14T02:51:14;97349.58;;;8.57;100.00
59588;BME280;45412;54.472;18.464;2023-03-14T02:54:03;97347.98;;;8.56;100.00
59588;BME280;45412;54.472;18.464;2023-03-14T02:56:50;97355.02;;;8.54;100.00
59588;BME280;45412;54.472;18.464;2023-03-14T02:59:37;97362.89;;;8.53;100.00
59588;BME280;45412;54.472;18.464;2023-03-14T03:02:31;97374.45;;;8.52;100.00
59588;BME280;45412;54.472;18.464;2023-03-14T03:05:18;97384.45;;;8.50;100.00
59588;BME280;45412;54.472;18.464;2023-03-14T03:08:05;97388.19;;;8.50;100.00
59588;BME280;45412;54.472;18.464;2023-03-14T03:10:52;97398.73;;;8.47;100.00
59588;BME280;45412;54.472;18.464;2023-03-14T03:13:39;97388.29;;;8.46;100.00
59588;BME280;45412;54.472;18.464;2023-03-14T03:16:26;97396.64;;;8.47;100.00
59588;BME280;45412;54.472;18.464;2023-03-14T03:19:13;97406.44;;;8.46;100.00
59588;BME280;45412;54.472;18.464;2023-03-14T03:22:00;97420.04;;;8.46;100.00
59588;BME280;45412;54.472;18.464;2023-03-14T03:24:48;97410.65;;;8.41;100.00
59588;BME280;45412;54.472;18.464;2023-03-14T03:27:36;97419.81;;;8.43;100.00
59588;BME280;45412;54.472;18.464;2023-03-14T03:30:23;97421.48;;;8.42;100.00
59588;BME280;45412;54.472;18.464;2023-03-14T03:33:11;97430.24;;;8.42;100.00
59588;BME280;45412;54.472;18.464;2023-03-14T03:36:02;97427.93;;;8.42;100.00
59588;BME280;45412;54.472;18.464;2023-03-14T03:38:51;97436.55;;;8.41;100.00
59588;BME280;45412;54.472;18.464;2023-03-14T03:41:38;97438.64;;;8.41;100.00
59588;BME280;45412;54.472;18.464;2023-03-14T03:44:24;97440.04;;;8.39;100.00
59588;BME280;45412;54.472;18.464;2023-03-14T03:47:11;97443.25;;;8.37;100.00
59588;BME280;45412;54.472;18.464;2023-03-14T03:49:58;97438.81;;;8.38;100.00
59588;BME280;45412;54.472;18.464;2023-03-14T03:52:44;97432.28;;;8.39;100.00
59588;BME280;45412;54.472;18.464;2023-03-14T03:55:31;97425.59;;;8.39;100.00
59588;BME280;45412;54.472;18.464;2023-03-14T03:58:17;97433.05;;;8.37;100.00
59588;BME280;45412;54.472;18.464;2023-03-14T04:01:04;97435.90;;;8.35;100.00
59588;BME280;45412;54.472;18.464;2023-03-14T04:03:51;97435.38;;;8.32;100.00
59588;BME280;45412;54.472;18.464;2023-03-14T04:06:39;97422.70;;;8.28;100.00
59588;BME280;45412;54.472;18.464;2023-03-14T04:09:28;97426.09;;;8.26;100.00
59588;BME280;45412;54.472;18.464;2023-03-14T04:12:27;97420.86;;;8.26;100.00
59588;BME280;45412;54.472;18.464;2023-03-14T04:15:43;97421.09;;;8.27;100.00
59588;BME280;45412;54.472;18.464;2023-03-14T04:18:37;97420.71;;;8.28;100.00
59588;BME280;45412;54.472;18.464;2023-03-14T04:21:24;97415.38;;;8.29;100.00
59588;BME280;45412;54.472;18.464;2023-03-14T04:24:14;97407.89;;;8.30;100.00
59588;BME280;45412;54.472;18.464;2023-03-14T04:27:04;97400.64;;;8.31;100.00
59588;BME280;45412;54.472;18.464;2023-03-14T04:29:51;97393.05;;;8.33;100.00
59588;BME280;45412;54.472;18.464;2023-03-14T04:32:45;97380.40;;;8.34;100.00
59588;BME280;45412;54.472;18.464;2023-03-14T04:35:33;97377.83;;;8.34;100.00
59588;BME280;45412;54.472;18.464;2023-03-14T04:38:24;97379.63;;;8.34;100.00
59588;BME280;45412;54.472;18.464;2023-03-14T04:41:11;97377.91;;;8.30;99.98
59588;BME280;45412;54.472;18.464;2023-03-14T04:43:58;97373.16;;;8.27;100.00
59588;BME280;45412;54.472;18.464;2023-03-14T04:46:45;97361.02;;;8.24;100.00
59588;BME280;45412;54.472;18.464;2023-03-14T04:49:32;97352.43;;;8.23;100.00
59588;BME280;45412;54.472;18.464;2023-03-14T04:52:20;97350.59;;;8.22;100.00
59588;BME280;45412;54.472;18.464;2023-03-14T04:55:07;97349.76;;;8.22;100.00
59588;BME280;45412;54.472;18.464;2023-03-14T04:57:53;97345.82;;;8.19;100.00
59588;BME280;45412;54.472;18.464;2023-03-14T05:00:40;97345.66;;;8.17;100.00
59588;BME280;45412;54.472;18.464;2023-03-14T05:03:50;97350.41;;;8.14;100.00
59588;BME280;45412;54.472;18.464;2023-03-14T05:07:03;97336.27;;;8.11;100.00
59588;BME280;45412;54.472;18.464;2023-03-14T05:10:16;97328.90;;;8.11;100.00
59588;BME280;45412;54.472;18.464;2023-03-14T05:13:32;97326.99;;;8.07;100.00
59588;BME280;45412;54.472;18.464;2023-03-14T05:16:56;97325.17;;;8.04;100.00
59588;BME280;45412;54.472;18.464;2023-03-14T05:20:04;97327.45;;;8.05;100.00
59588;BME280;45412;54.472;18.464;2023-03-14T05:23:14;97317.83;;;8.04;100.00
59588;BME280;45412;54.472;18.464;2023-03-14T05:26:19;97305.11;;;8.02;100.00
59588;BME280;45412;54.472;18.464;2023-03-14T05:29:26;97298.59;;;8.02;100.00
59588;BME280;45412;54.472;18.464;2023-03-14T05:32:23;97302.33;;;8.02;100.00
59588;BME280;45412;54.472;18.464;2023-03-14T05:35:27;97306.71;;;8.00;100.00
59588;BME280;45412;54.472;18.464;2023-03-14T05:38:31;97310.02;;;7.97;100.00
59588;BME280;45412;54.472;18.464;2023-03-14T05:41:36;97317.17;;;7.97;100.00
59588;BME280;45412;54.472;18.464;2023-03-14T05:44:37;97318.66;;;7.96;100.00
59588;BME280;45412;54.472;18.464;2023-03-14T05:47:32;97334.02;;;7.96;100.00
59588;BME280;45412;54.472;18.464;2023-03-14T05:50:41;97340.04;;;7.94;100.00
59588;BME280;45412;54.472;18.464;2023-03-14T05:53:39;97350.96;;;7.96;100.00
59588;BME280;45412;54.472;18.464;2023-03-14T05:56:43;97352.73;;;7.98;100.00
59588;BME280;45412;54.472;18.464;2023-03-14T05:59:53;97336.89;;;7.97;100.00
59588;BME280;45412;54.472;18.464;2023-03-14T06:02:58;97342.52;;;8.04;100.00
59588;BME280;45412;54.472;18.464;2023-03-14T06:05:50;97343.48;;;8.07;100.00
59588;BME280;45412;54.472;18.464;2023-03-14T06:08:37;97354.33;;;8.09;100.00
59588;BME280;45412;54.472;18.464;2023-03-14T06:11:24;97353.58;;;8.11;100.00
59588;BME280;45412;54.472;18.464;2023-03-14T06:14:10;97343.02;;;8.17;100.00
59588;BME280;45412;54.472;18.464;2023-03-14T06:16:59;97348.75;;;8.25;100.00
59588;BME280;45412;54.472;18.464;2023-03-14T06:19:47;97359.00;;;8.29;99.95
59588;BME280;45412;54.472;18.464;2023-03-14T06:22:33;97360.24;;;8.32;99.95
59588;BME280;45412;54.472;18.464;2023-03-14T06:25:21;97362.02;;;8.39;99.86
59588;BME280;45412;54.472;18.464;2023-03-14T06:28:08;97351.44;;;8.43;99.73
59588;BME280;45412;54.472;18.464;2023-03-14T06:30:54;97342.64;;;8.48;99.56
59588;BME280;45412;54.472;18.464;2023-03-14T06:33:41;97343.67;;;8.53;99.47
59588;BME280;45412;54.472;18.464;2023-03-14T06:36:28;97334.93;;;8.57;99.31
59588;BME280;45412;54.472;18.464;2023-03-14T06:39:15;97349.83;;;8.64;99.21
59588;BME280;45412;54.472;18.464;2023-03-14T06:42:04;97344.85;;;8.71;98.71
59588;BME280;45412;54.472;18.464;2023-03-14T06:44:50;97345.85;;;8.76;98.68
59588;BME280;45412;54.472;18.464;2023-03-14T06:47:37;97344.89;;;8.80;97.99
59588;BME280;45412;54.472;18.464;2023-03-14T06:50:24;97351.83;;;8.84;98.10
59588;BME280;45412;54.472;18.464;2023-03-14T06:53:12;97346.08;;;8.88;97.85
59588;BME280;45412;54.472;18.464;2023-03-14T06:55:59;97338.48;;;8.94;97.91
59588;BME280;45412;54.472;18.464;2023-03-14T06:58:46;97345.59;;;9.03;97.59
59588;BME280;45412;54.472;18.464;2023-03-14T07:01:36;97345.11;;;9.14;97.20
59588;BME280;45412;54.472;18.464;2023-03-14T07:04:26;97345.10;;;9.22;96.49
59588;BME280;45412;54.472;18.464;2023-03-14T07:07:14;97341.98;;;9.30;96.06
59588;BME280;45412;54.472;18.464;2023-03-14T07:10:00;97345.73;;;9.47;96.14
59588;BME280;45412;54.472;18.464;2023-03-14T07:12:47;97344.41;;;9.66;94.98
59588;BME280;45412;54.472;18.464;2023-03-14T07:15:33;97347.95;;;9.78;94.35
59588;BME280;45412;54.472;18.464;2023-03-14T07:18:23;97351.98;;;9.91;93.97
59588;BME280;45412;54.472;18.464;2023-03-14T07:21:09;97361.18;;;10.05;93.46
59588;BME280;45412;54.472;18.464;2023-03-14T07:23:56;97355.42;;;10.26;92.57
59588;BME280;45412;54.472;18.464;2023-03-14T07:26:43;97346.64;;;10.63;91.31
59588;BME280;45412;54.472;18.464;2023-03-14T07:29:30;97335.35;;;10.84;89.79
59588;BME280;45412;54.472;18.464;2023-03-14T07:32:18;97329.86;;;11.10;88.57
59588;BME280;45412;54.472;18.464;2023-03-14T07:35:06;97320.98;;;11.30;86.95
59588;BME280;45412;54.472;18.464;2023-03-14T07:37:55;97308.27;;;11.51;85.89
59588;BME280;45412;54.472;18.464;2023-03-14T07:40:47;97309.33;;;11.83;84.87
59588;BME280;45412;54.472;18.464;2023-03-14T07:43:34;97310.02;;;12.34;83.30
59588;BME280;45412;54.472;18.464;2023-03-14T07:46:20;97294.92;;;12.76;81.34
59588;BME280;45412;54.472;18.464;2023-03-14T07:49:07;97287.48;;;13.37;80.68
59588;BME280;45412;54.472;18.464;2023-03-14T07:51:53;97285.58;;;13.62;77.08
59588;BME280;45412;54.472;18.464;2023-03-14T07:54:40;97289.63;;;13.47;76.36
59588;BME280;45412;54.472;18.464;2023-03-14T07:57:27;97290.12;;;13.17;76.69
59588;BME280;45412;54.472;18.464;2023-03-14T08:00:14;97296.13;;;13.06;77.87
59588;BME280;45412;54.472;18.464;2023-03-14T08:03:02;97287.34;;;13.04;77.47
59588;BME280;45412;54.472;18.464;2023-03-14T08:05:50;97284.11;;;12.95;77.99
59588;BME280;45412;54.472;18.464;2023-03-14T08:08:37;97285.06;;;12.81;78.89
59588;BME280;45412;54.472;18.464;2023-03-14T08:11:24;97288.54;;;12.70;79.27
59588;BME280;45412;54.472;18.464;2023-03-14T08:14:10;97280.82;;;12.58;79.72
59588;BME280;45412;54.472;18.464;2023-03-14T08:16:57;97281.15;;;12.37;80.67
59588;BME280;45412;54.472;18.464;2023-03-14T08:19:43;97280.14;;;12.17;81.61
59588;BME280;45412;54.472;18.464;2023-03-14T08:22:31;97278.98;;;11.98;82.47
59588;BME280;45412;54.472;18.464;2023-03-14T08:25:18;97270.93;;;11.80;83.33
59588;BME280;45412;54.472;18.464;2023-03-14T08:28:05;97266.27;;;11.80;84.00
59588;BME280;45412;54.472;18.464;2023-03-14T08:30:54;97268.30;;;11.84;83.84
59588;BME280;45412;54.472;18.464;2023-03-14T08:33:40;97257.05;;;11.87;83.71
59588;BME280;45412;54.472;18.464;2023-03-14T08:36:27;97260.48;;;11.96;83.56
59588;BME280;45412;54.472;18.464;2023-03-14T08:39:14;97265.50;;;11.89;83.76
59588;BME280;45412;54.472;18.464;2023-03-14T08:42:00;97257.01;;;11.81;84.18
59588;BME280;45412;54.472;18.464;2023-03-14T08:44:47;97254.46;;;11.68;84.59
59588;BME280;45412;54.472;18.464;2023-03-14T08:47:33;97259.98;;;11.60;85.03
59588;BME280;45412;54.472;18.464;2023-03-14T08:50:20;97259.41;;;11.49;85.69
59588;BME280;45412;54.472;18.464;2023-03-14T08:53:08;97249.63;;;11.46;86.19
59588;BME280;45412;54.472;18.464;2023-03-14T08:55:55;97257.84;;;11.43;86.37
59588;BME280;45412;54.472;18.464;2023-03-14T08:58:41;97269.30;;;11.39;86.37
59588;BME280;45412;54.472;18.464;2023-03-14T09:01:29;97275.52;;;11.35;86.64
59588;BME280;45412;54.472;18.464;2023-03-14T09:04:16;97269.45;;;11.39;86.59
59588;BME280;45412;54.472;18.464;2023-03-14T09:07:03;97277.98;;;11.39;86.66
59588;BME280;45412;54.472;18.464;2023-03-14T09:09:49;97280.91;;;11.33;86.83
59588;BME280;45412;54.472;18.464;2023-03-14T09:12:36;97283.23;;;11.31;86.98
59588;BME280;45412;54.472;18.464;2023-03-14T09:15:22;97270.48;;;11.28;86.88
59588;BME280;45412;54.472;18.464;2023-03-14T09:18:09;97272.48;;;11.28;87.01
59588;BME280;45412;54.472;18.464;2023-03-14T09:20:56;97275.08;;;11.24;87.29
59588;BME280;45412;54.472;18.464;2023-03-14T09:23:42;97274.50;;;11.20;87.46
59588;BME280;45412;54.472;18.464;2023-03-14T09:26:29;97267.55;;;11.22;87.23
59588;BME280;45412;54.472;18.464;2023-03-14T09:29:16;97281.64;;;11.31;86.62
59588;BME280;45412;54.472;18.464;2023-03-14T09:32:02;97289.08;;;11.37;86.21
59588;BME280;45412;54.472;18.464;2023-03-14T09:34:49;97291.67;;;11.57;85.69
59588;BME280;45412;54.472;18.464;2023-03-14T09:37:36;97289.93;;;11.88;83.80
59588;BME280;45412;54.472;18.464;2023-03-14T09:40:22;97284.30;;;12.26;82.91
59588;BME280;45412;54.472;18.464;2023-03-14T09:43:14;97290.48;;;12.53;81.21
59588;BME280;45412;54.472;18.464;2023-03-14T09:46:02;97281.96;;;12.68;80.40
59588;BME280;45412;54.472;18.464;2023-03-14T09:48:49;97267.86;;;12.73;79.70
59588;BME280;45412;54.472;18.464;2023-03-14T09:51:36;97270.80;;;12.66;79.75
59588;BME280;45412;54.472;18.464;2023-03-14T09:54:38;97283.98;;;12.58;79.98
59588;BME280;45412;54.472;18.464;2023-03-14T09:57:27;97290.03;;;12.52;80.44
59588;BME280;45412;54.472;18.464;2023-03-14T10:00:21;97281.63;;;12.52;80.55
59588;BME280;45412;54.472;18.464;2023-03-14T10:03:22;97281.28;;;12.39;80.57
59588;BME280;45412;54.472;18.464;2023-03-14T10:06:14;97277.62;;;12.20;81.34
59588;BME280;45412;54.472;18.464;2023-03-14T10:09:02;97281.23;;;12.11;81.76
59588;BME280;45412;54.472;18.464;2023-03-14T10:11:50;97277.36;;;12.23;81.61
59588;BME280;45412;54.472;18.464;2023-03-14T10:14:46;97282.70;;;12.16;81.29
59588;BME280;45412;54.472;18.464;2023-03-14T10:18:03;97287.86;;;12.08;81.52
59588;BME280;45412;54.472;18.464;2023-03-14T10:21:25;97285.04;;;12.16;81.47
59588;BME280;45412;54.472;18.464;2023-03-14T10:27:27;97295.02;;;12.44;80.19
59588;BME280;45412;54.472;18.464;2023-03-14T10:30:44;97291.42;;;12.50;79.11
59588;BME280;45412;54.472;18.464;2023-03-14T10:33:35;97277.48;;;12.53;79.02
59588;BME280;45412;54.472;18.464;2023-03-14T10:36:28;97279.96;;;12.46;78.56
59588;BME280;45412;54.472;18.464;2023-03-14T10:42:19;97303.08;;;12.51;78.70
59588;BME280;45412;54.472;18.464;2023-03-14T10:48:22;97297.48;;;12.41;79.19
59588;BME280;45412;54.472;18.464;2023-03-14T10:51:25;97303.23;;;12.21;79.67
59588;BME280;45412;54.472;18.464;2023-03-14T10:54:19;97301.96;;;12.07;80.52
59588;BME280;45412;54.472;18.464;2023-03-14T10:57:07;97302.73;;;11.97;81.02
59588;BME280;45412;54.472;18.464;2023-03-14T10:59:55;97293.27;;;11.86;81.71
59588;BME280;45412;54.472;18.464;2023-03-14T11:03:19;97276.64;;;11.87;81.56
59588;BME280;45412;54.472;18.464;2023-03-14T11:06:32;97268.96;;;11.87;81.59
59588;BME280;45412;54.472;18.464;2023-03-14T11:09:47;97261.00;;;12.01;81.15
59588;BME280;45412;54.472;18.464;2023-03-14T11:19:42;97254.06;;;12.25;79.98
59588;BME280;45412;54.472;18.464;2023-03-14T11:23:16;97240.93;;;12.58;78.65
59588;BME280;45412;54.472;18.464;2023-03-14T11:29:28;97248.73;;;13.00;76.17
59588;BME280;45412;54.472;18.464;2023-03-14T11:38:40;97244.84;;;13.13;74.95
59588;BME280;45412;54.472;18.464;2023-03-14T11:41:36;97237.73;;;13.00;75.59
59588;BME280;45412;54.472;18.464;2023-03-14T11:44:39;97235.24;;;12.85;76.06
59588;BME280;45412;54.472;18.464;2023-03-14T11:47:33;97234.59;;;12.71;76.28
59588;BME280;45412;54.472;18.464;2023-03-14T11:50:28;97237.67;;;12.54;76.90
59588;BME280;45412;54.472;18.464;2023-03-14T11:53:42;97236.55;;;12.48;77.29
59588;BME280;45412;54.472;18.464;2023-03-14T12:09:20;97241.87;;;12.76;76.81
59588;BME280;45412;54.472;18.464;2023-03-14T12:12:16;97239.45;;;12.95;75.99
59588;BME280;45412;54.472;18.464;2023-03-14T12:15:05;97241.80;;;13.21;74.55
59588;BME280;45412;54.472;18.464;2023-03-14T12:17:57;97233.09;;;13.84;71.86
59588;BME280;45412;54.472;18.464;2023-03-14T12:20:53;97238.18;;;14.06;69.93
59588;BME280;45412;54.472;18.464;2023-03-14T12:23:49;97239.60;;;14.01;69.40
59588;BME280;45412;54.472;18.464;2023-03-14T12:27:40;97242.48;;;13.82;69.50
59588;BME280;45412;54.472;18.464;2023-03-14T12:30:41;97244.35;;;13.88;69.25
59588;BME280;45412;54.472;18.464;2023-03-14T12:33:30;97233.45;;;14.36;67.36
59588;BME280;45412;54.472;18.464;2023-03-14T12:43:01;97216.89;;;14.55;66.19
59588;BME280;45412;54.472;18.464;2023-03-14T12:52:01;97228.92;;;14.04;67.41
59588;BME280;45412;54.472;18.464;2023-03-14T12:55:07;97223.76;;;14.02;67.51
59588;BME280;45412;54.472;18.464;2023-03-14T12:58:12;97215.96;;;13.83;68.07
59588;BME280;45412;54.472;18.464;2023-03-14T13:01:05;97220.98;;;13.57;69.01
59588;BME280;45412;54.472;18.464;2023-03-14T13:04:03;97219.48;;;13.46;69.16
59588;BME280;45412;54.472;18.464;2023-03-14T13:06:56;97224.45;;;13.42;69.54
59588;BME280;45412;54.472;18.464;2023-03-14T13:13:21;97228.73;;;13.30;69.60
59588;BME280;45412;54.472;18.464;2023-03-14T13:16:15;97226.02;;;13.30;69.31
59588;BME280;45412;54.472;18.464;2023-03-14T13:19:18;97216.77;;;13.40;68.97
59588;BME280;45412;54.472;18.464;2023-03-14T13:22:32;97215.85;;;13.52;68.81
59588;BME280;45412;54.472;18.464;2023-03-14T13:25:20;97207.30;;;13.57;67.85
59588;BME280;45412;54.472;18.464;2023-03-14T13:28:10;97211.07;;;13.62;67.56
59588;BME280;45412;54.472;18.464;2023-03-14T13:31:02;97210.91;;;13.52;67.64
59588;BME280;45412;54.472;18.464;2023-03-14T13:34:04;97210.96;;;13.31;68.22
59588;BME280;45412;54.472;18.464;2023-03-14T13:36:53;97211.52;;;13.10;68.84
59588;BME280;45412;54.472;18.464;2023-03-14T13:39:40;97216.65;;;13.01;69.57
59588;BME280;45412;54.472;18.464;2023-03-14T13:42:28;97214.02;;;12.98;70.03
59588;BME280;45412;54.472;18.464;2023-03-14T13:45:15;97214.65;;;12.95;70.28
59588;BME280;45412;54.472;18.464;2023-03-14T13:48:07;97216.90;;;12.99;70.41
59588;BME280;45412;54.472;18.464;2023-03-14T13:51:00;97218.96;;;13.10;69.78
59588;BME280;45412;54.472;18.464;2023-03-14T13:53:54;97218.83;;;13.26;69.22
59588;BME280;45412;54.472;18.464;2023-03-14T13:56:40;97213.77;;;13.38;68.68
59588;BME280;45412;54.472;18.464;2023-03-14T13:59:33;97218.77;;;13.45;68.67
59588;BME280;45412;54.472;18.464;2023-03-14T14:02:21;97217.91;;;13.35;68.97
59588;BME280;45412;54.472;18.464;2023-03-14T14:05:11;97210.84;;;13.24;69.58
59588;BME280;45412;54.472;18.464;2023-03-14T14:07:58;97214.96;;;13.23;69.99
59588;BME280;45412;54.472;18.464;2023-03-14T14:10:47;97209.97;;;13.24;69.20
59588;BME280;45412;54.472;18.464;2023-03-14T14:13:35;97208.85;;;13.26;69.02
59588;BME280;45412;54.472;18.464;2023-03-14T14:16:24;97210.70;;;13.29;69.01
59588;BME280;45412;54.472;18.464;2023-03-14T14:19:13;97210.95;;;13.23;68.04
59588;BME280;45412;54.472;18.464;2023-03-14T14:22:01;97207.88;;;13.17;67.85
59588;BME280;45412;54.472;18.464;2023-03-14T14:24:49;97203.84;;;13.17;68.15
59588;BME280;45412;54.472;18.464;2023-03-14T14:27:43;97203.64;;;13.14;68.32
59588;BME280;45412;54.472;18.464;2023-03-14T14:30:33;97206.48;;;13.07;68.08
59588;BME280;45412;54.472;18.464;2023-03-14T14:33:21;97208.56;;;13.00;67.88
59588;BME280;45412;54.472;18.464;2023-03-14T14:36:31;97207.79;;;12.96;67.88
59588;BME280;45412;54.472;18.464;2023-03-14T14:39:28;97207.16;;;12.93;68.20
59588;BME280;45412;54.472;18.464;2023-03-14T14:42:19;97204.57;;;12.91;67.97
59588;BME280;45412;54.472;18.464;2023-03-14T14:45:33;97207.90;;;12.86;68.34
59588;BME280;45412;54.472;18.464;2023-03-14T14:48:26;97202.42;;;12.78;68.46
59588;BME280;45412;54.472;18.464;2023-03-14T14:51:24;97206.56;;;12.76;68.43
59588;BME280;45412;54.472;18.464;2023-03-14T14:54:21;97204.00;;;12.67;68.55
59588;BME280;45412;54.472;18.464;2023-03-14T14:57:23;97201.95;;;12.58;68.34
59588;BME280;45412;54.472;18.464;2023-03-14T15:00:20;97203.23;;;12.52;68.83
59588;BME280;45412;54.472;18.464;2023-03-14T15:03:14;97202.89;;;12.41;69.62
59588;BME280;45412;54.472;18.464;2023-03-14T15:06:03;97210.58;;;12.35;70.39
59588;BME280;45412;54.472;18.464;2023-03-14T15:08:49;97215.02;;;12.31;70.69
59588;BME280;45412;54.472;18.464;2023-03-14T15:11:37;97218.83;;;12.22;71.21
59588;BME280;45412;54.472;18.464;2023-03-14T15:14:23;97245.33;;;12.15;72.11
59588;BME280;45412;54.472;18.464;2023-03-14T15:17:11;97247.06;;;11.97;75.99
59588;BME280;45412;54.472;18.464;2023-03-14T15:19:58;97260.40;;;11.61;79.80
59588;BME280;45412;54.472;18.464;2023-03-14T15:22:46;97253.63;;;11.27;81.71
59588;BME280;45412;54.472;18.464;2023-03-14T15:25:32;97246.23;;;11.05;83.49
59588;BME280;45412;54.472;18.464;2023-03-14T15:28:39;97240.80;;;10.91;85.21
59588;BME280;45412;54.472;18.464;2023-03-14T15:31:26;97247.95;;;10.85;86.06
59588;BME280;45412;54.472;18.464;2023-03-14T15:34:13;97244.62;;;10.81;86.79
59588;BME280;45412;54.472;18.464;2023-03-14T15:36:59;97246.43;;;10.82;86.74
59588;BME280;45412;54.472;18.464;2023-03-14T15:39:45;97241.48;;;10.82;87.28
59588;BME280;45412;54.472;18.464;2023-03-14T15:42:32;97239.06;;;10.81;87.14
59588;BME280;45412;54.472;18.464;2023-03-14T15:45:21;97248.89;;;10.82;87.23
59588;BME280;45412;54.472;18.464;2023-03-14T15:48:17;97261.55;;;10.80;87.93
59588;BME280;45412;54.472;18.464;2023-03-14T15:51:04;97267.98;;;10.77;88.55
59588;BME280;45412;54.472;18.464;2023-03-14T15:53:51;97270.64;;;10.77;88.36
59588;BME280;45412;54.472;18.464;2023-03-14T15:56:37;97268.05;;;10.73;88.53
59588;BME280;45412;54.472;18.464;2023-03-14T15:59:26;97266.59;;;10.69;88.81
59588;BME280;45412;54.472;18.464;2023-03-14T16:02:15;97278.97;;;10.56;88.52